Time;durP1;ratioP1;P1;durP2;ratioP2;P2;SDS_P1;SDS_P2;PMS_P1;PMS_P2;Temp;Humidity;BMP_temperature;BMP_pressure;BME280_temperature;BME280_humidity;BME280_pressure;Samples;Min_cycle;Max_cycle;Signal;HPM_P1;HPM_P2
2022/05/16 00:00:25;;;;;;;7.97;3.45;;;;;;;17.17;55.96;99058.91;5147945;28;20081;-69
2022/05/16 00:03:15;;;;;;;6.50;2.60;;;;;;;17.58;52.94;99052.06;5149997;28;20047;-69
2022/05/16 00:06:06;;;;;;;4.03;2.67;;;;;;;17.75;52.10;99041.13;5155814;28;20053;-69
2022/05/16 00:08:57;;;;;;;6.00;3.03;;;;;;;17.60;51.58;99028.56;5157935;28;20062;-69
2022/05/16 00:11:47;;;;;;;6.93;2.88;;;;;;;17.51;52.38;99024.31;5174176;23;20535;-81
2022/05/16 00:14:38;;;;;;;3.50;2.67;;;;;;;17.47;52.91;99030.25;5182638;28;20049;-82
2022/05/16 00:17:28;;;;;;;5.40;3.10;;;;;;;17.46;53.38;99015.19;5173516;28;20057;-80
2022/05/16 00:20:19;;;;;;;5.40;3.22;;;;;;;17.29;54.57;99031.47;5183078;28;20061;-81
2022/05/16 00:23:10;;;;;;;6.85;2.90;;;;;;;17.04;55.72;99014.00;5169422;28;20515;-81
2022/05/16 00:26:00;;;;;;;6.53;3.28;;;;;;;17.06;55.03;99015.50;5197840;28;20175;-81
2022/05/16 00:28:50;;;;;;;10.93;2.83;;;;;;;16.96;56.35;99012.28;5189577;28;20071;-82
2022/05/16 00:31:41;;;;;;;3.83;2.75;;;;;;;16.96;56.46;99017.63;5201081;28;20052;-82
2022/05/16 00:34:32;;;;;;;8.00;3.08;;;;;;;17.01;56.61;99017.06;5163551;28;20050;-82
2022/05/16 00:37:22;;;;;;;5.28;3.05;;;;;;;16.85;56.64;99002.84;5176826;28;20176;-82
2022/05/16 00:40:13;;;;;;;7.55;2.90;;;;;;;16.74;56.68;99000.56;5164055;28;20153;-82
2022/05/16 00:43:07;;;;;;;6.25;2.90;;;;;;;16.73;56.41;99006.97;5190541;28;20050;-83
2022/05/16 00:45:58;;;;;;;4.95;3.05;;;;;;;16.59;57.06;98992.53;5174356;28;20069;-83
2022/05/16 00:48:49;;;;;;;5.97;3.15;;;;;;;16.56;57.05;99008.13;5181472;28;20051;-82
2022/05/16 00:51:58;;;;;;;7.93;3.45;;;;;;;16.58;57.07;99006.09;5197861;28;20057;-82
2022/05/16 00:54:52;;;;;;;7.32;3.22;;;;;;;16.54;57.47;98994.09;5193402;28;20111;-81
2022/05/16 00:57:48;;;;;;;6.55;3.13;;;;;;;16.52;58.16;98993.44;5180116;28;20056;-81
2022/05/16 01:00:41;;;;;;;5.88;2.92;;;;;;;16.35;58.65;98985.56;5184690;28;20107;-81
2022/05/16 01:06:40;;;;;;;9.80;3.67;;;;;;;16.42;60.20;98983.84;5196379;28;20064;-83
2022/05/16 01:09:31;;;;;;;10.23;3.92;;;;;;;16.38;59.85;98979.00;5200200;28;20455;-80
2022/05/16 01:12:32;;;;;;;8.55;3.50;;;;;;;16.52;59.64;98974.69;5186876;28;20053;-82
2022/05/16 01:15:31;;;;;;;6.03;3.20;;;;;;;16.53;58.96;98987.09;5185180;28;20500;-81
2022/05/16 01:18:23;;;;;;;6.15;3.10;;;;;;;16.43;58.67;98987.34;5192697;28;20061;-82
2022/05/16 01:21:36;;;;;;;6.30;3.58;;;;;;;16.29;60.30;98959.53;5190570;28;20451;-81
2022/05/16 01:24:27;;;;;;;12.25;3.28;;;;;;;16.21;60.37;98960.44;5182001;28;20435;-83
2022/05/16 01:27:17;;;;;;;12.05;3.40;;;;;;;16.22;59.39;98966.59;5209982;28;20072;-81
2022/05/16 01:30:09;;;;;;;4.53;3.22;;;;;;;16.33;59.62;98976.06;5210413;28;20081;-81
2022/05/16 01:32:59;;;;;;;7.45;3.10;;;;;;;16.14;59.21;98970.19;5181843;28;20412;-83
2022/05/16 01:35:49;;;;;;;9.35;3.17;;;;;;;16.07;60.22;98976.44;5196242;28;20061;-83
2022/05/16 01:38:40;;;;;;;7.65;3.33;;;;;;;16.19;59.93;98988.38;5223940;28;20529;-82
2022/05/16 01:41:31;;;;;;;7.38;2.83;;;;;;;16.10;60.52;98971.56;5185720;28;20448;-82
2022/05/16 01:44:21;;;;;;;5.80;3.55;;;;;;;16.13;60.19;98986.44;5188702;28;20061;-82
2022/05/16 01:47:11;;;;;;;5.18;3.22;;;;;;;16.26;60.34;98992.00;5191405;28;20049;-82
2022/05/16 01:50:02;;;;;;;9.02;3.30;;;;;;;16.25;59.78;98990.31;5190854;28;20069;-82
2022/05/16 01:52:52;;;;;;;9.02;3.47;;;;;;;16.23;59.26;98987.03;5188423;28;20045;-83
2022/05/16 01:55:43;;;;;;;5.60;3.03;;;;;;;16.28;59.10;98984.63;5197328;28;20061;-81
2022/05/16 01:58:34;;;;;;;7.53;3.33;;;;;;;16.18;59.51;98974.16;5166609;28;20135;-82
2022/05/16 02:01:24;;;;;;;6.15;2.65;;;;;;;16.69;54.85;98968.19;5184805;28;20071;-82
2022/05/16 02:04:14;;;;;;;6.35;2.70;;;;;;;16.86;53.83;98961.66;5194441;28;20515;-81
2022/05/16 02:07:04;;;;;;;5.22;2.40;;;;;;;17.11;52.34;98964.03;5202654;28;20092;-82
2022/05/16 02:09:55;;;;;;;7.75;2.97;;;;;;;17.35;52.54;98973.59;5187718;28;20104;-82
2022/05/16 02:12:45;;;;;;;7.80;3.05;;;;;;;17.52;52.22;98967.03;5188950;28;20179;-82
2022/05/16 02:15:37;;;;;;;6.68;3.00;;;;;;;17.46;52.46;98964.25;5199704;28;20053;-82
2022/05/16 02:18:27;;;;;;;5.50;3.00;;;;;;;17.25;53.82;98959.66;5197771;28;20057;-80
2022/05/16 02:24:39;;;;;;;6.05;3.22;;;;;;;16.77;54.93;98953.91;5189003;28;20195;-80
2022/05/16 02:27:29;;;;;;;7.57;2.67;;;;;;;17.52;52.38;98969.69;5179832;28;20112;-83
2022/05/16 02:30:21;;;;;;;5.03;2.38;;;;;;;17.59;52.02;98972.47;5192784;28;20053;-83
2022/05/16 02:33:14;;;;;;;4.93;2.85;;;;;;;17.25;53.39;98986.47;5204125;28;20480;-83
2022/05/16 02:36:04;;;;;;;5.07;2.67;;;;;;;17.12;54.06;98965.72;5191358;28;20049;-83
2022/05/16 02:38:54;;;;;;;4.05;2.55;;;;;;;17.13;53.89;98975.41;5201656;28;20060;-81
2022/05/16 02:41:45;;;;;;;5.88;3.10;;;;;;;17.01;53.85;98976.88;5164074;28;20058;-81
2022/05/16 02:44:38;;;;;;;6.18;3.00;;;;;;;16.74;55.76;98978.34;5198854;28;20054;-81
2022/05/16 02:47:28;;;;;;;5.22;3.20;;;;;;;16.56;54.88;98960.78;5180849;28;20053;-82
2022/05/16 02:50:23;;;;;;;6.65;3.00;;;;;;;16.73;54.31;98977.50;5193692;28;20059;-79
2022/05/16 02:53:13;;;;;;;8.18;2.78;;;;;;;16.77;53.98;98967.28;5196500;28;20055;-80
2022/05/16 02:56:03;;;;;;;6.82;3.33;;;;;;;16.71;55.33;98978.69;5165312;28;20050;-80
2022/05/16 02:58:54;;;;;;;7.20;3.20;;;;;;;16.82;54.63;98988.97;5181620;28;20144;-80
2022/05/16 03:01:45;;;;;;;5.63;3.03;;;;;;;16.66;55.46;99009.53;5191569;28;20679;-80
2022/05/16 03:04:35;;;;;;;6.43;2.70;;;;;;;16.49;55.84;98991.97;5198227;28;20056;-80
2022/05/16 03:07:25;;;;;;;5.38;3.10;;;;;;;16.67;56.38;98994.28;5185245;28;20124;-80
2022/05/16 03:10:16;;;;;;;7.72;3.20;;;;;;;16.70;56.43;99014.53;5203111;28;20057;-81
2022/05/16 03:13:06;;;;;;;7.55;3.30;;;;;;;16.55;57.12;99006.44;5165237;28;20050;-80
2022/05/16 03:15:58;;;;;;;10.70;3.38;;;;;;;16.48;57.49;99001.00;5195753;28;20129;-80
2022/05/16 03:18:48;;;;;;;5.00;2.95;;;;;;;16.40;57.54;99009.13;5186517;28;20067;-81
2022/05/16 03:21:38;;;;;;;6.20;3.03;;;;;;;16.11;58.98;99008.00;5180853;28;20061;-81
2022/05/16 03:24:28;;;;;;;7.05;3.15;;;;;;;16.00;59.24;99010.28;5176603;28;20120;-81
2022/05/16 03:27:19;;;;;;;7.07;3.60;;;;;;;16.35;58.67;99000.78;5171271;28;20475;-82
2022/05/16 03:30:10;;;;;;;7.32;3.30;;;;;;;16.31;58.62;99018.22;5172307;28;20046;-82
2022/05/16 03:33:00;;;;;;;6.13;3.50;;;;;;;16.25;59.37;99011.72;5176697;28;20053;-81
2022/05/16 03:35:55;;;;;;;11.73;3.90;;;;;;;16.34;58.65;99016.00;5217795;28;20077;-81
2022/05/16 03:41:56;;;;;;;10.63;3.72;;;;;;;16.19;59.04;99015.13;5184786;28;20550;-80
2022/05/16 03:44:47;;;;;;;6.72;3.65;;;;;;;16.27;58.51;99004.38;5170178;28;20064;-81
2022/05/16 03:47:37;;;;;;;8.40;3.67;;;;;;;16.36;59.12;99018.53;5183606;28;20054;-80
2022/05/16 03:50:27;;;;;;;6.72;3.75;;;;;;;16.43;57.81;99022.13;5193810;28;20049;-81
2022/05/16 03:53:18;;;;;;;7.72;3.30;;;;;;;16.31;58.51;99010.19;5170011;28;20196;-81
2022/05/16 03:56:08;;;;;;;5.90;3.13;;;;;;;16.39;59.03;99016.31;5177444;28;20057;-81
2022/05/16 03:58:59;;;;;;;6.65;3.60;;;;;;;16.56;58.87;99025.03;5185139;28;20519;-81
2022/05/16 04:01:51;;;;;;;8.52;3.50;;;;;;;16.52;58.28;99030.91;5185950;28;20072;-80
2022/05/16 04:04:41;;;;;;;9.68;3.60;;;;;;;16.31;58.11;99007.50;5183264;28;20065;-81
2022/05/16 04:07:32;;;;;;;5.55;3.50;;;;;;;16.55;59.27;99038.56;5193620;28;20079;-82
2022/05/16 04:10:23;;;;;;;11.50;3.60;;;;;;;16.50;59.41;99038.31;5174361;28;20517;-80
2022/05/16 04:13:13;;;;;;;5.10;3.70;;;;;;;16.46;59.25;99024.44;5163075;28;20057;-80
2022/05/16 04:16:04;;;;;;;7.35;3.42;;;;;;;16.50;60.03;99041.81;5183320;28;20159;-82
2022/05/16 04:18:55;;;;;;;7.05;3.75;;;;;;;16.47;59.55;99030.63;5183696;28;20058;-80
2022/05/16 04:21:45;;;;;;;8.48;3.38;;;;;;;16.61;59.06;99033.31;5168745;28;20176;-80
2022/05/16 04:24:35;;;;;;;7.00;3.70;;;;;;;16.74;59.26;99032.72;5183211;28;20054;-80
2022/05/16 04:27:26;;;;;;;7.65;3.40;;;;;;;16.64;59.68;99027.59;5187618;28;20057;-80
2022/05/16 04:30:17;;;;;;;6.13;3.40;;;;;;;16.73;58.25;99035.59;5183226;28;20176;-80
2022/05/16 04:33:07;;;;;;;8.00;3.65;;;;;;;16.97;58.46;99053.28;5194630;28;20069;-80
2022/05/16 04:35:58;;;;;;;7.00;3.22;;;;;;;17.09;57.80;99059.84;5194358;28;20056;-80
2022/05/16 04:38:48;;;;;;;7.88;4.00;;;;;;;16.92;58.25;99051.16;5191171;28;20052;-81
2022/05/16 04:44:51;;;;;;;6.78;3.85;;;;;;;17.02;60.71;99051.72;5207774;28;20669;-80
2022/05/16 04:47:44;;;;;;;12.48;4.07;;;;;;;17.21;59.82;99044.13;5201697;28;20137;-81
2022/05/16 04:50:34;;;;;;;11.15;4.03;;;;;;;17.10;60.88;99032.88;5193280;28;20099;-83
2022/05/16 04:53:24;;;;;;;10.60;4.53;;;;;;;17.24;61.24;99057.16;5184816;28;20133;-83
2022/05/16 04:56:15;;;;;;;18.27;4.35;;;;;;;17.12;62.55;99068.34;5186074;28;20053;-83
2022/05/16 04:59:05;;;;;;;6.47;3.92;;;;;;;17.12;61.01;99038.88;5180363;28;20049;-83
2022/05/16 05:01:56;;;;;;;11.88;4.15;;;;;;;17.30;61.09;99049.22;5179932;28;20049;-83
2022/05/16 05:04:49;;;;;;;9.52;4.15;;;;;;;17.19;62.78;99036.28;5209047;28;20054;-83
2022/05/16 05:07:40;;;;;;;13.88;4.43;;;;;;;17.22;63.54;99057.34;5216111;28;20059;-83
2022/05/16 05:16:51;;;;;;;10.40;4.20;;;;;;;17.32;61.89;99068.63;5195948;28;20633;-84
2022/05/16 05:19:41;;;;;;;8.45;4.38;;;;;;;17.26;61.44;99061.31;5186835;28;20527;-83
2022/05/16 05:22:31;;;;;;;10.05;4.50;;;;;;;17.40;59.19;99064.19;5170972;28;20685;-84
2022/05/16 05:25:22;;;;;;;15.43;4.40;;;;;;;17.47;59.85;99063.25;5185970;28;20129;-84
2022/05/16 05:28:12;;;;;;;11.93;4.40;;;;;;;17.64;60.82;99079.13;5173504;28;20064;-85
2022/05/16 05:31:03;;;;;;;12.82;4.78;;;;;;;17.73;60.68;99072.66;5185717;28;20139;-86
2022/05/16 05:33:54;;;;;;;18.45;4.53;;;;;;;17.68;59.85;99069.69;5187196;28;20041;-85
2022/05/16 05:36:44;;;;;;;10.70;4.28;;;;;;;17.96;59.63;99075.22;5187083;28;20049;-84
2022/05/16 05:39:35;;;;;;;15.85;4.63;;;;;;;18.02;58.97;99063.72;5198212;28;20046;-82
2022/05/16 05:42:31;;;;;;;17.67;5.13;;;;;;;18.10;59.74;99063.59;5196947;28;20042;-84
2022/05/16 05:45:21;;;;;;;8.20;3.90;;;;;;;18.16;56.81;99070.06;5203148;28;20080;-84
2022/05/16 05:48:12;;;;;;;11.65;4.65;;;;;;;18.26;57.39;99057.16;5204357;28;20056;-83
2022/05/16 05:51:03;;;;;;;21.08;5.32;;;;;;;18.10;58.26;99073.50;5203942;28;20102;-83
2022/05/16 05:53:53;;;;;;;10.38;4.38;;;;;;;18.37;57.61;99080.78;5187903;28;20043;-83
2022/05/16 05:56:43;;;;;;;11.32;4.63;;;;;;;18.46;55.68;99073.44;5190274;28;20056;-84
2022/05/16 05:59:34;;;;;;;5.43;3.88;;;;;;;18.71;54.51;99088.16;5204369;28;20105;-83
2022/05/16 06:02:24;;;;;;;10.35;3.95;;;;;;;18.77;55.74;99111.56;5196726;28;20104;-84
2022/05/16 06:05:19;;;;;;;6.47;4.03;;;;;;;18.94;54.86;99093.31;5204984;28;20132;-84
2022/05/16 06:08:11;;;;;;;6.43;4.28;;;;;;;19.04;54.77;99092.97;5192726;28;20121;-85
2022/05/16 06:11:02;;;;;;;8.80;4.53;;;;;;;19.13;54.99;99086.41;5184523;28;20125;-83
2022/05/16 06:13:53;;;;;;;6.30;4.03;;;;;;;19.30;54.54;99088.78;5190891;28;20686;-83
2022/05/16 06:16:45;;;;;;;7.25;4.30;;;;;;;19.46;54.34;99105.41;5215346;28;20065;-83
2022/05/16 06:19:36;;;;;;;9.52;3.70;;;;;;;19.45;53.83;99101.09;5190929;28;20208;-86
2022/05/16 06:22:27;;;;;;;7.15;3.30;;;;;;;19.39;53.86;99109.09;5167845;28;20056;-84
2022/05/16 06:25:31;;;;;;;8.80;3.92;;;;;;;19.36;55.12;99121.09;5171884;28;20065;-84
2022/05/16 06:28:24;;;;;;;7.10;3.80;;;;;;;19.78;53.10;99116.59;5154201;28;20060;-85
2022/05/16 06:31:23;;;;;;;6.97;3.58;;;;;;;19.95;53.31;99123.28;5178356;28;20069;-84
2022/05/16 06:34:49;;;;;;;7.20;3.45;;;;;;;19.47;53.66;98987.97;5190432;28;20072;-85
2022/05/16 06:37:43;;;;;;;7.15;3.60;;;;;;;19.86;53.62;99042.94;5210805;28;20030;-85
2022/05/16 06:40:35;;;;;;;8.20;3.88;;;;;;;20.81;50.28;99121.84;5192851;28;20094;-85
2022/05/16 06:43:28;;;;;;;9.48;3.60;;;;;;;20.14;52.85;99035.56;5186277;28;20077;-83
2022/05/16 06:46:18;;;;;;;5.00;3.23;;;;;;;21.14;50.26;99102.97;5187785;28;20049;-84
2022/05/16 06:49:09;;;;;;;6.68;3.70;;;;;;;21.12;51.74;99129.28;5187832;28;20288;-83
2022/05/16 06:51:59;;;;;;;10.93;3.70;;;;;;;21.34;52.05;99121.81;5173071;28;20081;-83
2022/05/16 06:54:51;;;;;;;7.05;3.30;;;;;;;21.60;51.20;99109.34;5192957;28;20128;-83
2022/05/16 06:57:42;;;;;;;14.13;4.00;;;;;;;22.50;48.62;99140.69;5200096;28;20458;-84
2022/05/16 07:00:37;;;;;;;12.20;3.25;;;;;;;22.23;49.70;99148.13;5179941;28;20057;-84
2022/05/16 07:03:27;;;;;;;9.07;3.47;;;;;;;23.14;49.83;99143.38;5202920;28;20038;-85
2022/05/16 07:06:18;;;;;;;7.15;3.28;;;;;;;23.45;47.41;99137.88;5191619;28;20038;-84
2022/05/16 07:09:08;;;;;;;6.15;3.05;;;;;;;23.86;46.70;99152.66;5192465;28;20027;-84
2022/05/16 07:11:58;;;;;;;9.52;3.47;;;;;;;23.80;47.76;99145.44;5208881;28;20033;-84
2022/05/16 07:14:48;;;;;;;8.48;3.30;;;;;;;23.66;48.30;99143.91;5212809;28;20064;-84
2022/05/16 07:17:39;;;;;;;7.18;3.33;;;;;;;23.82;46.64;99148.75;5190245;28;20184;-83
2022/05/16 07:20:29;;;;;;;8.57;3.75;;;;;;;24.71;46.87;99145.53;5187924;28;20060;-83
2022/05/16 07:23:20;;;;;;;7.13;3.40;;;;;;;24.38;47.13;99157.66;5158342;28;20054;-82
2022/05/16 07:29:20;;;;;;;7.95;3.35;;;;;;;24.06;48.71;99165.97;5190514;28;20060;-83
2022/05/16 07:32:11;;;;;;;15.13;3.60;;;;;;;23.88;47.86;99153.28;5187328;28;20101;-82
2022/05/16 07:35:04;;;;;;;8.82;3.65;;;;;;;23.68;48.68;99137.25;5174557;28;20081;-82
2022/05/16 07:37:54;;;;;;;7.63;3.13;;;;;;;23.45;48.27;99146.00;5199034;28;20119;-82
2022/05/16 07:40:45;;;;;;;6.55;3.60;;;;;;;24.32;47.57;99145.84;5189284;28;20057;-82
2022/05/16 07:43:35;;;;;;;6.38;3.00;;;;;;;25.17;45.82;99158.38;5189269;28;20052;-84
2022/05/16 07:46:26;;;;;;;7.30;3.90;;;;;;;25.60;44.89;99149.03;5204433;28;20112;-82
2022/05/16 07:49:18;;;;;;;10.57;3.30;;;;;;;26.75;43.99;99146.44;5189379;28;20496;-82
2022/05/16 07:52:08;;;;;;;7.30;3.10;;;;;;;27.66;40.46;99171.59;5197215;28;20034;-83
2022/05/16 07:54:59;;;;;;;7.03;3.10;;;;;;;28.10;40.47;99177.13;5207520;28;20033;-84
2022/05/16 07:58:17;;;;;;;3.92;2.85;;;;;;;26.93;41.88;99181.59;5210042;28;20054;-83
2022/05/16 08:01:07;;;;;;;8.70;3.03;;;;;;;26.53;44.17;99162.66;5210150;28;20068;-84
2022/05/16 08:03:58;;;;;;;8.95;3.20;;;;;;;26.77;44.18;99168.81;5197859;28;20038;-83
2022/05/16 08:06:48;;;;;;;7.30;2.92;;;;;;;27.60;40.64;99173.44;5197592;28;20030;-83
2022/05/16 08:12:48;;;;;;;5.88;3.22;;;;;;;26.79;42.28;99144.88;5211253;28;20049;-84
2022/05/16 08:15:41;;;;;;;11.68;3.22;;;;;;;26.07;42.87;99162.56;5197361;28;20102;-82
2022/05/16 08:18:32;;;;;;;7.25;3.08;;;;;;;25.60;44.47;99131.94;5196971;28;20045;-83
2022/05/16 08:21:22;;;;;;;8.13;3.20;;;;;;;25.55;45.78;99162.50;5211092;28;20042;-84
2022/05/16 08:24:12;;;;;;;7.47;3.15;;;;;;;26.18;43.53;99158.16;5197509;28;20049;-83
2022/05/16 08:27:03;;;;;;;10.70;3.50;;;;;;;26.18;43.95;99172.56;5189421;28;20064;-82
2022/05/16 08:29:54;;;;;;;8.43;3.00;;;;;;;25.93;44.68;99174.78;5187402;28;20500;-83
2022/05/16 08:32:45;;;;;;;10.82;3.40;;;;;;;26.47;42.26;99178.03;5201548;28;20140;-83
2022/05/16 08:35:35;;;;;;;9.70;3.17;;;;;;;25.98;42.60;99172.16;5175806;28;20496;-83
2022/05/16 08:42:05;;;;;;;7.35;3.60;;;;;;;26.55;43.66;99188.53;5185802;28;20049;-82
2022/05/16 08:45:02;;;;;;;11.45;3.78;;;;;;;27.69;41.14;99181.19;5184127;28;20056;-82
2022/05/16 08:48:18;;;;;;;8.50;3.60;;;;;;;28.06;41.33;99186.88;5183554;28;20488;-83
2022/05/16 08:51:21;;;;;;;5.80;3.78;;;;;;;29.01;38.87;99212.81;5179949;28;20167;-83
2022/05/16 08:54:27;;;;;;;9.68;3.85;;;;;;;29.21;36.95;99200.41;5185282;28;20059;-83
2022/05/16 08:57:28;;;;;;;11.02;4.13;;;;;;;29.19;38.00;99183.47;5192294;28;20061;-83
2022/05/16 09:00:31;;;;;;;7.85;3.88;;;;;;;29.24;38.92;99210.81;5193498;28;20111;-82
2022/05/16 09:03:36;;;;;;;7.57;3.92;;;;;;;29.18;39.96;99198.22;5185502;28;20088;-83
2022/05/16 09:06:34;;;;;;;9.48;3.75;;;;;;;29.90;38.84;99205.84;5191424;28;20076;-82
2022/05/16 09:09:51;;;;;;;6.03;3.92;;;;;;;29.49;37.25;99188.31;5188339;28;20547;-84
2022/05/16 09:12:43;;;;;;;6.25;3.88;;;;;;;29.19;39.50;99210.78;5175854;28;20068;-82
2022/05/16 09:16:05;;;;;;;8.65;3.97;;;;;;;28.73;41.22;99215.75;5201009;28;20049;-84
2022/05/16 09:19:28;;;;;;;12.90;4.10;;;;;;;29.15;41.78;99223.31;5205382;28;20643;-84
2022/05/16 09:22:27;;;;;;;7.85;4.13;;;;;;;29.23;38.92;99212.69;5180245;28;20061;-84
2022/05/16 09:25:23;;;;;;;10.50;4.22;;;;;;;29.09;40.60;99194.31;5206503;28;20485;-86
2022/05/16 09:31:30;;;;;;;10.48;4.22;;;;;;;29.00;41.44;99205.69;5183438;28;20155;-85
2022/05/16 09:34:20;;;;;;;7.72;4.60;;;;;;;29.06;41.36;99219.38;5184055;28;20745;-84
2022/05/16 09:37:10;;;;;;;13.32;4.10;;;;;;;28.57;40.47;99228.41;5184092;28;20064;-84
2022/05/16 09:40:08;;;;;;;7.45;4.20;;;;;;;28.40;39.35;99209.41;5172229;28;20060;-84
2022/05/16 09:43:14;;;;;;;12.82;4.07;;;;;;;28.72;40.31;99231.31;5185344;28;20064;-85
2022/05/16 09:46:23;;;;;;;11.82;4.28;;;;;;;29.19;37.44;99222.50;5185291;28;20071;-85
2022/05/16 09:49:25;;;;;;;8.18;3.80;;;;;;;28.50;43.49;99239.53;5184739;28;20060;-84
2022/05/16 09:52:21;;;;;;;14.77;4.53;;;;;;;27.25;41.95;99228.19;5185850;28;20100;-84
2022/05/16 09:55:25;;;;;;;10.13;3.97;;;;;;;27.36;42.22;99230.00;5185272;28;20112;-84
2022/05/16 09:58:22;;;;;;;9.73;4.45;;;;;;;27.24;42.28;99222.97;5167543;28;20053;-84
2022/05/16 10:01:27;;;;;;;7.25;3.80;;;;;;;26.97;42.03;99226.28;5167584;28;20057;-83
2022/05/16 10:04:20;;;;;;;13.20;4.53;;;;;;;27.62;41.31;99220.31;5190035;28;20038;-84
2022/05/16 10:07:11;;;;;;;8.60;3.87;;;;;;;27.47;42.39;99255.47;5175146;28;20046;-84
2022/05/16 10:10:02;;;;;;;12.65;4.60;;;;;;;27.27;43.67;99234.19;5215893;28;20044;-84
2022/05/16 10:12:53;;;;;;;13.48;4.47;;;;;;;26.38;43.24;99248.25;5196738;28;20060;-84
2022/05/16 10:15:46;;;;;;;7.40;3.95;;;;;;;26.91;42.53;99247.13;5210067;28;20041;-82
2022/05/16 10:18:47;;;;;;;12.75;4.55;;;;;;;27.43;41.46;99245.34;5208727;28;20061;-83
2022/05/16 10:21:49;;;;;;;8.32;4.15;;;;;;;27.19;41.01;99241.97;5240142;28;20046;-84
2022/05/16 10:24:45;;;;;;;10.68;4.97;;;;;;;26.87;43.21;99258.75;5227542;28;20072;-81
2022/05/16 10:27:38;;;;;;;11.52;4.50;;;;;;;27.05;42.91;99258.56;5212788;28;20038;-85
2022/05/16 10:33:24;;;;;;;14.52;4.60;;;;;;;27.10;42.99;99253.19;5212609;28;20090;-84
2022/05/16 10:33:46;;;;;;;6.55;3.60;;;;;;;26.60;41.23;99255.81;5213726;28;20049;-84
2022/05/16 10:36:36;;;;;;;10.93;3.33;;;;;;;26.84;42.32;99246.47;5199995;28;20041;-86
2022/05/16 10:39:29;;;;;;;10.52;3.55;;;;;;;26.26;42.64;99263.78;5214442;28;20187;-85
2022/05/16 10:42:36;;;;;;;16.52;3.78;;;;;;;26.40;41.79;99256.19;5212997;28;20072;-84
2022/05/16 10:45:29;;;;;;;10.68;3.40;;;;;;;26.46;41.82;99250.63;5212822;28;20064;-85
2022/05/16 10:48:44;;;;;;;10.73;3.65;;;;;;;26.65;41.17;99275.75;5213247;28;20036;-84
2022/05/16 10:51:42;;;;;;;11.43;3.78;;;;;;;27.30;41.85;99274.53;5212643;28;20106;-84
2022/05/16 10:54:33;;;;;;;6.43;3.42;;;;;;;26.30;42.02;99237.78;5212370;28;20089;-84
2022/05/16 10:57:58;;;;;;;12.63;3.35;;;;;;;27.00;42.77;99268.53;5197631;28;20038;-83
2022/05/16 11:01:03;;;;;;;7.97;3.03;;;;;;;27.15;42.80;99269.66;5210874;28;20089;-84
2022/05/16 11:04:49;;;;;;;14.15;2.50;;;;;;;26.12;43.33;99263.19;5211801;28;20025;-84
2022/05/16 11:08:10;;;;;;;10.30;2.40;;;;;;;25.29;42.33;99286.75;5192955;28;20070;-84
2022/05/16 11:11:25;;;;;;;8.55;2.17;;;;;;;26.01;42.30;99269.47;5214065;28;20053;-84
2022/05/16 11:14:46;;;;;;;9.98;2.20;;;;;;;25.97;42.53;99273.75;5211955;28;20030;-84
2022/05/16 11:18:26;;;;;;;25.27;2.80;;;;;;;24.88;44.89;99273.16;5212582;28;20068;-85
2022/05/16 11:21:29;;;;;;;12.68;2.60;;;;;;;25.40;44.29;99274.28;5204831;28;20026;-84
2022/05/16 11:24:38;;;;;;;19.10;2.25;;;;;;;26.42;43.03;99270.34;5212370;28;20057;-84
2022/05/16 11:27:55;;;;;;;8.55;2.50;;;;;;;26.34;43.59;99273.47;5211661;28;20050;-84
2022/05/16 11:30:58;;;;;;;16.83;3.28;;;;;;;26.02;44.15;99295.59;5193122;28;20210;-83
2022/05/16 11:33:54;;;;;;;10.93;2.15;;;;;;;25.12;44.38;99277.63;5202001;28;20049;-84
2022/05/16 11:36:59;;;;;;;14.65;2.38;;;;;;;25.03;44.38;99284.41;5210143;28;20101;-84
2022/05/16 11:40:06;;;;;;;10.77;2.10;;;;;;;24.61;44.66;99287.88;5210274;28;20242;-85
2022/05/16 11:43:26;;;;;;;7.47;2.20;;;;;;;24.75;46.06;99304.81;5209932;28;20033;-85
2022/05/16 11:46:31;;;;;;;5.80;2.00;;;;;;;24.14;46.29;99303.84;5196958;28;20040;-87
2022/05/16 11:49:49;;;;;;;;;;;;;;;24.01;46.42;99319.41;5207986;28;20101;-85
2022/05/16 11:53:25;;;;;;;8.77;2.20;;;;;;;24.05;47.15;99324.13;5194694;28;19964;-86
2022/05/16 12:03:05;;;;;;;6.88;1.98;;;;;;;24.61;44.72;99309.59;5195626;28;20057;-85
2022/05/16 12:06:14;;;;;;;15.60;2.15;;;;;;;24.73;45.10;99296.06;5193010;28;20085;-85
2022/05/16 12:09:53;;;;;;;11.32;1.65;;;;;;;23.71;46.41;99311.97;5190634;28;20150;-85
2022/05/16 12:13:07;;;;;;;4.65;1.40;;;;;;;23.50;47.03;99334.75;5171199;28;20099;-87
2022/05/16 12:16:28;;;;;;;4.68;1.30;;;;;;;23.18;47.21;99331.25;5175578;28;20492;-86
2022/05/16 12:19:21;;;;;;;2.85;1.27;;;;;;;23.53;45.44;99341.63;5176990;28;20061;-85
2022/05/16 12:22:21;;;;;;;5.53;1.48;;;;;;;23.12;46.01;99343.75;5175979;28;20107;-85
2022/05/16 12:25:24;;;;;;;4.10;1.30;;;;;;;22.89;46.59;99338.84;5189486;28;20065;-86
2022/05/16 12:28:15;;;;;;;10.18;1.77;;;;;;;22.18;47.82;99330.75;5191117;28;20061;-85
2022/05/16 12:31:09;;;;;;;3.35;1.15;;;;;;;22.26;48.28;99314.34;5188029;28;21176;-86
2022/05/16 12:33:59;;;;;;;5.60;1.35;;;;;;;22.71;47.64;99331.47;5191017;28;20057;-85
2022/05/16 12:36:50;;;;;;;6.60;1.48;;;;;;;22.78;47.58;99315.22;5187482;28;20077;-83
2022/05/16 12:40:29;;;;;;;3.35;1.58;;;;;;;21.84;51.02;99335.34;5186721;28;20121;-83
2022/05/16 12:43:50;;;;;;;4.55;1.80;;;;;;;21.81;50.61;99346.56;5148303;28;20049;-83
2022/05/16 12:46:56;;;;;;;17.50;1.85;;;;;;;21.84;52.75;99354.25;5197293;28;20057;-83
2022/05/16 12:50:11;;;;;;;7.00;1.83;;;;;;;21.55;54.89;99352.78;5172994;28;20611;-84
2022/05/16 12:53:20;;;;;;;9.48;2.22;;;;;;;21.79;55.28;99375.66;5192290;28;20061;-82
2022/05/16 12:56:39;;;;;;;7.65;1.90;;;;;;;21.27;56.75;99372.63;5184057;28;20044;-81
2022/05/16 12:59:41;;;;;;;6.45;1.77;;;;;;;22.13;55.89;99377.28;5184380;28;20144;-83
2022/05/16 13:03:04;;;;;;;5.90;1.80;;;;;;;21.91;58.07;99352.38;5168608;28;20439;-82
2022/05/16 13:06:24;;;;;;;8.52;1.80;;;;;;;21.93;57.46;99371.06;5179789;28;20046;-84
2022/05/16 13:09:37;;;;;;;10.45;2.38;;;;;;;22.02;58.96;99376.06;5161632;28;20052;-84
2022/05/16 13:12:58;;;;;;;6.72;2.00;;;;;;;21.86;60.44;99354.88;5198932;28;20155;-84
2022/05/16 13:15:55;;;;;;;8.90;2.30;;;;;;;21.58;58.77;99331.59;5197926;28;20049;-84
2022/05/16 13:18:53;;;;;;;10.23;2.17;;;;;;;21.94;59.53;99346.56;5186750;28;20061;-84
2022/05/16 13:22:00;;;;;;;10.57;2.75;;;;;;;22.09;59.40;99361.72;5184612;28;20061;-86
2022/05/16 13:24:56;;;;;;;5.47;2.45;;;;;;;22.30;58.22;99350.69;5177187;28;20049;-85
2022/05/16 13:31:01;;;;;;;8.75;2.63;;;;;;;22.19;58.96;99348.66;5211368;28;20064;-85
2022/05/16 13:33:54;;;;;;;8.38;3.40;;;;;;;22.41;58.46;99363.53;5183867;28;20053;-84
2022/05/16 13:36:49;;;;;;;6.47;2.40;;;;;;;22.47;56.63;99346.50;5155343;28;20046;-84
2022/05/16 13:39:50;;;;;;;4.18;2.15;;;;;;;22.77;57.01;99353.25;5173656;28;20054;-85
2022/05/16 13:42:42;;;;;;;9.57;2.83;;;;;;;23.02;56.85;99353.41;5183953;28;20050;-83
2022/05/16 13:45:37;;;;;;;21.50;3.15;;;;;;;22.60;57.81;99339.38;5185797;28;20052;-84
2022/05/16 13:48:28;;;;;;;9.38;2.80;;;;;;;23.05;58.65;99359.19;5190570;28;20080;-84
2022/05/16 13:51:19;;;;;;;13.02;3.05;;;;;;;23.37;57.95;99334.84;5190322;28;20064;-83
2022/05/16 13:54:19;;;;;;;10.05;3.58;;;;;;;23.47;58.00;99354.16;5192127;28;20054;-84
2022/05/16 13:57:12;;;;;;;8.18;3.47;;;;;;;23.54;56.61;99341.41;5177025;28;20115;-84
2022/05/16 14:00:10;;;;;;;10.95;3.30;;;;;;;23.58;57.57;99336.41;5190912;28;20056;-84
2022/05/16 14:03:05;;;;;;;6.95;3.10;;;;;;;22.23;59.40;99288.59;5189770;28;20444;-82
2022/05/16 14:05:57;;;;;;;10.18;3.45;;;;;;;22.70;59.53;99308.16;5186601;28;20053;-82
2022/05/16 14:08:47;;;;;;;17.15;3.88;;;;;;;22.87;58.24;99321.19;5188356;28;20516;-85
2022/05/16 14:11:37;;;;;;;14.45;3.30;;;;;;;23.58;55.98;99314.75;5186043;28;20112;-85
2022/05/16 14:14:29;;;;;;;9.02;3.83;;;;;;;23.24;57.38;99297.91;5165860;28;20207;-85
2022/05/16 14:17:35;;;;;;;6.75;3.42;;;;;;;23.53;57.28;99311.84;5138841;28;20053;-84
2022/05/16 14:20:25;;;;;;;9.32;3.22;;;;;;;23.43;54.82;99304.22;5183864;28;20050;-83
2022/05/16 14:23:22;;;;;;;10.95;3.17;;;;;;;23.94;54.52;99321.31;5186136;28;20567;-83
2022/05/16 14:26:21;;;;;;;11.98;3.47;;;;;;;23.83;54.39;99298.50;5199848;28;20128;-84
2022/05/16 14:29:32;;;;;;;7.40;3.15;;;;;;;24.24;53.37;99318.72;5197821;28;20108;-85